Terminal Aerodrome Forecast
Issued by NWS

Home | Current Version | Previous Version | Graphics & Text | Print | Product List | Glossary On
Versions: 1 2 3 4 5 6 7 8 9 10 11 12 13 14
000
FTUS45 KGGW 172320
TAFOLF
TAF
KOLF 172320Z 1800/1824 29005KT 6SM -SN FEW015 OVC040
     FM180100 29005KT P6SM OVC040
     FM180300 VRB04KT 5SM BR BKN060
      TEMPO 1805/1807 2SM BR OVC015
     FM180700 VRB04KT P6SM OVC090
     FM181000 27005KT P6SM BKN025=

USA.gov is the U.S. government's official web portal to all federal, state and local government web resources and services.